Aviation Digital Data Service (ADDS)

Output produced by METARs form (1840 UTC 18 June 2019)
found at http://www.aviationweather.gov/metar/data/
 
LYBE 181830Z 22006KT 9999 TS FEW033CB 23/18 Q1015 NOSIG
TAF LYBE 181700Z 1818/1918 29005KT 9999 SCT033 TX30/1914Z TN16/1903Z 
     TEMPO 1818/1821 VRB25KT 4000 TSRA SCT030CB SCT033 
     TEMPO 1902/1905 3000 BR 
     TEMPO 1912/1918 VRB25KT 4000 TSRA SCT027CB SCT030
       
LYNI 181830Z 31002KT CAVOK 20/18 Q1015 NOSIG
TAF LYNI 181700Z 1818/1918 03005KT CAVOK TX30/1913Z TN17/1903Z 
     TEMPO 1903/1906 3000 BR 
     TEMPO 1910/1915 33018KT 4000 TSRA SCT028CB BKN033
       
LYVR 181830Z VRB01KT 9999 FEW040 24/20 Q1014 NOSIG
TAF LYVR 181700Z 1818/1918 08006KT 9999 SCT033 TX30/1914Z TN16/1903Z 
     PROB30 
     TEMPO 1818/1820 34015KT 4000 TSRA SCT030CB SCT040 
     TEMPO 1902/1905 3000 BR BKN006 
     TEMPO 1909/1917 4000 TSRA SCT030CB SCT040
       
LYKV 181830Z VRB03KT 9999 -RA FEW015 SCT040 18/18 Q1016 NOSIG
TAF LYKV 181700Z 1818/1918 VRB02KT 9999 SCT030 TX29/1913Z TN15/1903Z 
     TEMPO 1818/1820 5000 TSRA SCT027CB BKN030 
     TEMPO 1900/1905 1500 BR BKN010 
     TEMPO 1912/1917 VRB15G25KT 3000 TSRA SCT030CB BKN033
       
LYBT 181830Z VRB02KT 9999 SCT040TCU 22/19 Q1014 NOSIG
TAF LYBT 181700Z 1818/1918 VRB02KT 9999 SCT040 TX30/1913Z TN16/1903Z 
     PROB40 
     TEMPO 1818/1821 3000 TSRA SCT030CB BKN033 
     TEMPO 1902/1905 3000 BR 
     TEMPO 1912/1918 VRB15G35KT 3000 TSRA SCT027CB BKN030
       
LYUZ 181830Z AUTO VRB01KT 7000 NSC 17/17 Q1019
TAF LYUZ 181700Z 1818/1918 06005KT 9999 SCT010 BKN020 TX24/1913Z TN12/1903Z 
     BECMG 1822/1824 2000 BR BKN005 
     TEMPO 1900/1906 0200 FG VV001 
     BECMG 1906/1908 8000 NSW SCT017 
     TEMPO 1910/1915 10015KT 3000 TSRA SCT015CB BKN020